Latest Weather Observations for Dwellingup

IDW60801

Issued at 11:32 am WST Tuesday 1 September 2015 (issued every 30 minutes, with the page automatically refreshed every 10 minutes)

About weather observations | Map of weather stations | Latest weather observations for WA | Other Formats
Station Details ID: 009538 Name: DWELLINGUP Lat: -32.71 Lon: 116.06 Height: 267.0 m
Data from the previous 72 hours. | See also: Recent months at Dwellingup
Date/Time
WST
Temp
°C
App
Temp
°C
Dew
Point
Rel
Hum
%
Delta-T
°C
Wind Press
QNH
hPa
Press
MSL
hPa
Rain
since 9 am
mm
Dir
 
Spd
km/h
Gust
km/h
Spd
kts
Gust
kts
01/11:30am 11.1 6.7 2.7 56 3.7 S 15 26 8 14 1023.3 1023.4 0.0
01/11:00am 10.6 6.4 3.6 62 3.1 S 15 30 8 16 1023.6 1023.6 0.0
01/10:30am 10.3 4.7 3.6 63 3.0 S 22 33 12 18 1023.6 1023.6 0.0
01/10:00am 9.4 4.2 3.4 66 2.6 SSW 20 32 11 17 1023.6 1023.6 0.0
01/09:30am 8.8 4.1 3.4 69 2.4 S 17 26 9 14 1023.4 1023.5 0.0
01/09:00am 7.9 2.7 3.4 73 1.9 S 20 33 11 18 1023.7 1023.7 8.8
01/08:30am 7.0 1.8 2.5 73 1.9 S 19 30 10 16 1023.1 1023.2 8.8
01/08:00am 6.2 1.0 2.5 77 1.5 S 19 33 10 18 1022.6 1022.7 8.8
01/07:30am 4.9 -0.4 2.8 86 0.9 S 20 32 11 17 1022.2 1022.4 8.8
01/07:00am 3.5 -1.4 1.7 88 0.7 S 17 26 9 14 1021.7 1021.9 8.8
01/06:30am 3.4 -2.2 1.4 87 0.8 S 20 30 11 16 1021.4 1021.6 8.8
01/06:00am 3.8 -1.5 1.7 86 0.8 S 19 28 10 15 1021.1 1021.3 8.8
01/05:30am 4.3 -1.1 1.5 82 1.1 S 19 26 10 14 1020.6 1020.8 8.8
01/05:00am 4.6 -0.9 1.8 82 1.1 S 20 30 11 16 1020.5 1020.7 8.8
01/04:30am 4.9 -0.4 1.9 81 1.2 S 19 28 10 15 1020.4 1020.5 8.8
01/04:00am 4.8 -0.5 1.8 81 1.2 S 19 28 10 15 1020.1 1020.2 8.8
01/03:30am 5.3 0.0 2.1 80 1.3 SSW 19 30 10 16 1019.7 1019.8 8.8
01/03:00am 4.9 0.0 2.1 82 1.1 SSW 17 26 9 14 1019.7 1019.8 8.8
01/02:30am 5.2 0.3 2.0 80 1.3 SSW 17 26 9 14 1019.7 1019.8 8.8
01/02:00am 5.6 0.7 2.1 78 1.4 SSW 17 28 9 15 1019.8 1019.9 8.8
01/01:30am 5.9 1.1 2.4 78 1.5 SSW 17 30 9 16 1019.8 1019.9 8.8
01/01:00am 6.2 1.4 2.5 77 1.5 SSW 17 24 9 13 1019.7 1019.8 8.8
01/12:30am 6.9 1.6 2.8 75 1.7 SSW 20 32 11 17 1019.7 1019.8 8.8
01/12:00am 7.0 1.7 3.1 76 1.7 SSW 20 35 11 19 1019.5 1019.7 8.8
 
Date/Time
WST
Temp
°C
App
Temp
°C
Dew
Point
Rel
Hum
%
Delta-T
°C
Wind Press
QNH
hPa
Press
MSL
hPa
Rain
since 9 am
mm
Dir
 
Spd
km/h
Gust
km/h
Spd
kts
Gust
kts
31/11:30pm 7.0 1.8 3.3 77 1.6 SSW 20 35 11 19 1019.3 1019.5 8.8
31/11:00pm 7.3 2.3 3.4 76 1.7 SSW 19 33 10 18 1019.4 1019.6 8.8
31/10:30pm 7.3 3.0 3.4 76 1.7 SSW 15 24 8 13 1019.3 1019.5 8.8
31/10:00pm 7.6 3.4 3.8 77 1.7 SSW 15 24 8 13 1019.1 1019.3 8.8
31/09:30pm 7.5 2.9 3.9 78 1.6 SSW 17 28 9 15 1019.1 1019.3 8.8
31/09:00pm 7.6 3.1 4.2 79 1.5 SSW 17 26 9 14 1019.1 1019.3 8.8
31/08:30pm 7.9 3.5 4.8 81 1.4 SSW 17 30 9 16 1019.0 1019.2 8.6
31/08:00pm 8.1 4.3 5.6 84 1.1 SSW 15 22 8 12 1018.7 1018.9 8.6
31/07:30pm 8.2 4.8 5.8 85 1.1 SSW 13 19 7 10 1018.2 1018.4 8.6
31/07:00pm 8.3 4.9 6.1 86 1.0 SSW 13 22 7 12 1017.9 1018.1 8.6
31/06:30pm 8.8 4.1 5.9 82 1.3 SW 20 37 11 20 1017.9 1018.1 8.6
31/06:00pm 9.9 5.2 5.9 76 1.9 SW 20 39 11 21 1017.3 1017.5 8.4
31/05:30pm 10.1 5.5 6.6 79 1.7 SW 20 35 11 19 1016.9 1017.0 8.4
31/05:00pm 10.3 6.4 7.0 80 1.6 WSW 17 30 9 16 1016.4 1016.5 8.4
31/04:30pm 11.4 7.5 6.9 74 2.2 WSW 17 33 9 18 1016.0 1016.1 8.2
31/04:00pm 11.1 6.5 8.0 81 1.5 WSW 22 39 12 21 1016.0 1016.1 8.2
31/03:38pm 10.2 4.2 7.1 81 1.5 SW 28 54 15 29 1016.0 1016.1 7.8
31/03:30pm 13.1 8.6 7.1 67 2.9 WSW 20 54 11 29 1015.7 1015.8 7.6
31/03:00pm 12.9 8.5 8.8 76 2.1 WSW 22 46 12 25 1015.3 1015.5 7.6
31/02:30pm 12.3 7.2 9.1 81 1.6 WSW 26 41 14 22 1015.4 1015.6 7.6
31/02:00pm 11.4 8.2 9.8 90 0.8 WSW 17 33 9 18 1015.5 1015.7 7.6
31/01:30pm 10.4 6.5 8.5 88 0.9 WNW 19 33 10 18 1015.4 1015.6 6.4
31/01:00pm 10.7 6.7 9.0 89 0.9 W 20 43 11 23 1016.0 1016.1 6.0
31/12:30pm 10.2 3.9 7.6 84 1.3 W 30 54 16 29 1015.9 1016.0 5.4
31/12:28pm 10.1 4.1 7.2 82 1.4 W 28 54 15 29 1016.0 1016.1 5.4
31/12:00pm 13.6 9.7 9.5 76 2.1 NW 20 35 11 19 1015.9 1016.0 1.2
31/11:30am 13.0 9.6 10.5 85 1.3 NW 19 33 10 18 1016.2 1016.3 1.0
31/11:00am 11.6 6.3 8.5 81 1.6 NW 26 43 14 23 1017.1 1017.2 0.4
31/10:47am 13.5 7.7 7.9 69 2.8 NW 28 46 15 25 1016.8 1016.9 0.0
31/10:30am 14.4 8.7 6.7 60 3.8 NW 26 41 14 22 1016.8 1016.9 0.0
31/10:00am 14.3 9.7 6.6 60 3.8 NW 20 37 11 20 1017.2 1017.3 0.0
31/09:30am 13.8 9.7 6.4 61 3.6 NW 17 32 9 17 1017.5 1017.7 0.0
31/09:00am 12.8 8.9 7.3 69 2.7 NW 17 30 9 16 1017.9 1018.1 0.8
31/08:30am 11.0 9.1 8.9 87 1.1 NNW 9 15 5 8 1018.1 1018.3 0.8
31/08:00am 9.1 6.9 7.9 92 0.6 NNW 9 15 5 8 1018.2 1018.4 0.8
31/07:30am 8.6 5.6 7.5 93 0.5 N 13 15 7 8 1018.1 1018.3 0.8
31/07:00am 8.2 5.1 7.1 93 0.5 N 13 15 7 8 1018.2 1018.4 0.8
31/06:30am 8.2 5.4 7.1 93 0.5 N 11 15 6 8 1018.2 1018.4 0.8
31/06:00am 7.9 5.1 6.8 93 0.5 NNW 11 15 6 8 1018.3 1018.5 0.8
31/05:30am 7.5 5.0 6.4 93 0.5 N 9 13 5 7 1018.2 1018.4 0.8
31/05:00am 7.3 4.7 6.2 93 0.5 NNE 9 13 5 7 1018.2 1018.4 0.8
31/04:30am 7.5 5.9 6.3 92 0.6 N 4 9 2 5 1018.4 1018.6 0.6
31/04:00am 7.7 6.9 6.5 92 0.6 CALM 0 0 0 0 1018.6 1018.8 0.6
31/03:30am 7.7 5.8 6.5 92 0.6 NW 6 15 3 8 1018.8 1019.0 0.6
31/03:00am 7.5 4.9 6.1 91 0.6 NW 9 17 5 9 1019.4 1019.6 0.2
31/02:30am 7.5 4.9 6.0 90 0.7 N 9 9 5 5 1019.2 1019.4 0.2
31/02:00am 7.4 4.4 5.9 90 0.7 NW 11 15 6 8 1019.4 1019.6 0.2
31/01:30am 7.9 4.9 6.0 88 0.9 NW 11 13 6 7 1019.8 1019.9 0.2
31/01:00am 8.2 5.6 6.2 87 0.9 N 9 11 5 6 1019.9 1020.0 0.2
31/12:30am 8.2 5.6 6.0 86 1.0 N 9 11 5 6 1020.0 1020.1 0.2
31/12:00am 8.4 5.9 6.7 89 0.8 NW 9 17 5 9 1020.4 1020.5 0.2
 
Date/Time
WST
Temp
°C
App
Temp
°C
Dew
Point
Rel
Hum
%
Delta-T
°C
Wind Press
QNH
hPa
Press
MSL
hPa
Rain
since 9 am
mm
Dir
 
Spd
km/h
Gust
km/h
Spd
kts
Gust
kts
30/11:30pm 8.2 6.3 6.7 90 0.7 W 6 13 3 7 1020.6 1020.8 0.2
30/11:00pm 8.2 7.5 6.8 91 0.7 CALM 0 0 0 0 1020.7 1020.9 0.2
30/10:30pm 7.7 6.5 6.3 91 0.6 SSE 2 7 1 4 1020.9 1021.1 0.2
30/10:00pm 7.2 4.2 5.8 91 0.6 SSW 11 11 6 6 1021.1 1021.3 0.2
30/09:30pm 6.6 3.4 5.1 90 0.7 SW 11 13 6 7 1021.4 1021.6 0.2
30/09:00pm 7.2 4.1 5.5 89 0.8 SSW 11 13 6 7 1021.4 1021.6 0.2
30/08:30pm 7.7 4.3 5.8 88 0.9 SW 13 15 7 8 1021.4 1021.6 0.2
30/08:00pm 7.9 4.5 5.9 87 0.9 SW 13 17 7 9 1021.2 1021.4 0.2
30/07:30pm 8.4 5.0 6.0 85 1.1 SW 13 17 7 9 1021.2 1021.4 0.2
30/07:00pm 8.9 5.6 6.3 84 1.2 SW 13 17 7 9 1020.9 1021.1 0.2
30/06:30pm 9.6 6.3 6.3 80 1.6 SW 13 17 7 9 1020.7 1020.9 0.2
30/06:00pm 10.9 7.5 5.9 71 2.3 SW 13 17 7 9 1020.4 1020.5 0.2
30/05:30pm 12.1 8.5 5.0 62 3.3 SW 13 17 7 9 1020.2 1020.3 0.2
30/05:00pm 13.4 9.6 4.0 53 4.3 WSW 13 20 7 11 1020.1 1020.2 0.2
30/04:30pm 13.9 10.3 4.8 54 4.3 SW 13 19 7 10 1020.0 1020.1 0.2
30/04:00pm 14.5 10.5 4.8 52 4.6 SW 15 22 8 12 1019.9 1020.0 0.2
30/03:30pm 14.8 12.4 4.2 49 5.0 SW 6 15 3 8 1019.7 1019.8 0.2
30/03:00pm 15.0 11.3 4.4 49 5.0 SW 13 26 7 14 1019.7 1019.8 0.2
30/02:30pm 14.7 11.4 4.7 51 4.7 SW 11 19 6 10 1019.4 1019.6 0.2
30/02:00pm 14.8 11.6 5.3 53 4.5 SSW 11 19 6 10 1019.1 1019.3 0.2
30/01:30pm 13.9 10.7 5.3 56 4.1 WSW 11 17 6 9 1019.2 1019.4 0.2
30/01:00pm 14.5 12.4 6.8 60 3.8 SW 7 13 4 7 1019.5 1019.7 0.2
30/12:30pm 14.6 11.8 5.1 53 4.5 WSW 9 15 5 8 1019.7 1019.8 0.2
30/12:00pm 13.3 10.5 6.9 65 3.1 WSW 11 20 6 11 1020.1 1020.2 0.0
30/11:30am 13.4 10.3 7.4 67 3.0 SSW 13 22 7 12 1020.4 1020.5 0.0
30/11:00am 12.9 9.7 6.7 66 3.0 SW 13 19 7 10 1020.4 1020.5 0.0
30/10:30am 12.3 9.1 6.8 69 2.7 SW 13 22 7 12 1020.2 1020.3 0.0
30/10:00am 13.3 9.5 5.9 61 3.5 WSW 15 26 8 14 1019.9 1020.0 0.0
30/09:30am 13.2 10.8 7.0 66 3.0 SW 9 15 5 8 1019.5 1019.7 0.0
30/09:00am 11.9 10.4 8.4 79 1.7 SW 6 13 3 7 1019.4 1019.6 17.6
30/08:30am 11.2 9.5 8.2 82 1.5 SW 7 15 4 8 1019.3 1019.5 17.6
30/08:00am 11.3 8.0 8.0 80 1.6 SSW 15 24 8 13 1018.7 1018.9 17.4
30/07:30am 10.8 8.3 8.4 85 1.2 SW 11 19 6 10 1018.1 1018.3 17.4
30/07:00am 10.7 7.9 8.5 86 1.1 SW 13 20 7 11 1017.6 1017.8 17.4
30/06:30am 10.5 8.5 8.8 89 0.9 SW 9 17 5 9 1017.0 1017.1 17.4
30/06:00am 10.7 8.4 9.0 89 0.9 SW 11 19 6 10 1016.5 1016.6 17.4
30/05:30am 10.8 8.1 9.1 89 0.9 SW 13 20 7 11 1016.2 1016.3 17.4
30/05:00am 10.6 7.8 8.7 88 0.9 WSW 13 20 7 11 1015.8 1015.9 17.4
30/04:30am 10.9 7.5 9.2 89 0.9 WSW 17 28 9 15 1015.7 1015.8 17.4
30/04:00am 11.1 7.2 8.8 86 1.2 WSW 19 35 10 19 1015.3 1015.5 17.4
30/03:30am 11.6 8.0 10.0 90 0.8 WSW 19 35 10 19 1015.0 1015.2 17.4
30/03:00am 12.0 8.9 10.3 89 0.9 W 17 32 9 17 1014.8 1015.0 17.4
30/02:30am 12.0 9.8 10.7 92 0.7 W 13 24 7 13 1014.7 1014.9 17.4
30/02:00am 12.1 10.3 10.8 92 0.7 W 11 20 6 11 1014.5 1014.7 17.4
30/01:30am 12.4 10.3 11.3 93 0.6 W 13 24 7 13 1014.6 1014.8 17.2
30/01:00am 12.4 10.0 11.3 93 0.6 W 15 28 8 15 1014.4 1014.6 17.2
30/12:30am 12.7 10.7 11.6 93 0.6 WNW 13 20 7 11 1014.1 1014.3 17.0
30/12:00am 13.1 11.3 12.0 93 0.6 WNW 13 24 7 13 1013.8 1013.9 17.0
 
Date/Time
WST
Temp
°C
App
Temp
°C
Dew
Point
Rel
Hum
%
Delta-T
°C
Wind Press
QNH
hPa
Press
MSL
hPa
Rain
since 9 am
mm
Dir
 
Spd
km/h
Gust
km/h
Spd
kts
Gust
kts
29/11:30pm 13.0 11.5 11.9 93 0.6 NW 11 19 6 10 1013.9 1014.0 17.0
29/11:00pm 12.8 11.2 11.7 93 0.6 WNW 11 20 6 11 1014.0 1014.1 16.6
29/10:30pm 12.8 11.2 11.7 93 0.6 NW 11 17 6 9 1014.2 1014.4 16.4
29/10:00pm 12.7 11.4 11.4 92 0.7 WNW 9 17 5 9 1014.0 1014.1 16.4
29/09:30pm 13.0 10.7 11.9 93 0.6 W 15 30 8 16 1014.1 1014.3 16.2
29/09:00pm 13.7 12.0 12.6 93 0.6 W 13 19 7 10 1013.7 1013.8 12.8
29/08:30pm 13.8 12.1 12.5 92 0.7 W 13 22 7 12 1013.4 1013.5 12.0
29/08:00pm 13.8 13.4 12.5 92 0.7 NW 6 13 3 7 1013.1 1013.2 7.4
29/07:30pm 13.6 13.0 12.2 91 0.8 NNW 7 13 4 7 1013.1 1013.2 7.0
29/07:00pm 13.8 12.8 12.2 90 0.9 NW 9 15 5 8 1012.9 1013.0 7.0
29/06:30pm 14.0 11.7 11.9 87 1.1 WNW 15 32 8 17 1012.6 1012.7 7.0
29/06:00pm 15.4 14.4 12.2 81 1.8 NW 9 17 5 9 1012.2 1012.3 5.6
29/05:30pm 15.7 14.2 11.9 78 2.1 NW 11 24 6 13 1012.1 1012.2 5.6
29/05:00pm 16.4 13.4 11.8 74 2.5 WNW 19 32 10 17 1012.0 1012.1 5.6
29/04:30pm 16.6 14.4 12.2 75 2.4 WNW 15 30 8 16 1011.8 1011.9 5.6
29/04:00pm 16.4 13.7 11.8 74 2.5 WNW 17 35 9 19 1011.6 1011.8 5.6
29/03:30pm 16.9 13.2 11.6 71 2.9 WNW 22 44 12 24 1011.5 1011.7 5.6
29/03:00pm 17.2 14.1 13.5 79 2.1 WNW 22 39 12 21 1011.4 1011.6 5.6
29/02:30pm 16.8 12.6 13.5 81 1.9 NW 28 52 15 28 1011.4 1011.6 5.6
29/02:00pm 16.5 12.6 14.3 87 1.3 NW 28 48 15 26 1011.0 1011.2 5.6
29/01:49pm 16.4 12.6 14.6 89 1.0 NW 28 52 15 28 1010.9 1011.1 5.6
29/01:30pm 16.2 12.4 13.5 84 1.5 NNW 26 52 14 28 1010.9 1011.1 2.0
29/01:00pm 17.0 12.3 13.1 78 2.2 NNW 30 50 16 27 1011.0 1011.2 1.4
29/12:30pm 16.9 12.3 13.6 81 1.9 NNW 30 54 16 29 1011.5 1011.7 1.4
29/12:11pm 16.3 12.3 14.1 87 1.3 NNW 28 50 15 27 1011.9 1012.0 1.4
29/12:00pm 15.9 12.6 13.9 88 1.1 NNW 24 44 13 24 1012.2 1012.3 1.4

Other Formats:

Comma delimited format used in spreadsheet applications
http://www.bom.gov.au/fwo/IDW60801/IDW60801.94620.axf

JavaScript Object Notation format (JSON) in row-major order
http://www.bom.gov.au/fwo/IDW60801/IDW60801.94620.json